createdAt,value
2019-03-02T00:00:22.451Z,7.70
2019-03-02T00:05:25.840Z,7.70
2019-03-02T00:10:29.216Z,7.60
2019-03-02T00:15:32.607Z,7.60
2019-03-02T00:20:35.992Z,7.60
2019-03-02T00:25:39.376Z,7.50
2019-03-02T00:30:42.763Z,7.60
2019-03-02T00:35:46.187Z,7.50
2019-03-02T00:40:49.579Z,7.50
2019-03-02T00:45:52.956Z,7.50
2019-03-02T00:50:56.339Z,7.50
2019-03-02T00:55:59.728Z,7.50
2019-03-02T01:01:03.108Z,7.50
2019-03-02T01:06:08.908Z,7.50
2019-03-02T01:11:11.868Z,7.50
2019-03-02T01:16:16.781Z,7.40
2019-03-02T01:21:20.363Z,7.40
2019-03-02T01:26:23.999Z,7.40
2019-03-02T01:31:28.127Z,7.40
2019-03-02T01:36:32.230Z,7.40
2019-03-02T01:41:36.779Z,7.40
2019-03-02T01:46:40.890Z,7.40
2019-03-02T01:51:44.935Z,7.30
2019-03-02T01:56:48.331Z,7.40
2019-03-02T02:01:51.719Z,7.30
2019-03-02T02:06:55.108Z,7.30
2019-03-02T02:11:58.500Z,7.30
2019-03-02T02:17:01.934Z,7.30
2019-03-02T02:22:05.482Z,7.30
2019-03-02T02:27:08.874Z,7.30
2019-03-02T02:32:12.264Z,7.30
2019-03-02T02:37:15.648Z,7.30
2019-03-02T02:42:19.041Z,7.30
2019-03-02T02:47:22.410Z,7.30
2019-03-02T02:52:28.294Z,7.20
2019-03-02T02:57:33.537Z,7.20
2019-03-02T03:02:36.017Z,7.20
2019-03-02T03:07:39.418Z,7.20
2019-03-02T03:12:42.812Z,7.20
2019-03-02T03:17:46.204Z,7.20
2019-03-02T03:22:49.602Z,7.20
2019-03-02T03:27:53.666Z,7.20
2019-03-02T03:32:59.634Z,7.10
2019-03-02T03:38:02.243Z,7.10
2019-03-02T03:43:05.669Z,7.10
2019-03-02T03:48:12.882Z,7.10
2019-03-02T03:53:14.139Z,7.10
2019-03-02T03:58:17.624Z,7.10
2019-03-02T04:03:21.104Z,7.10
2019-03-02T04:08:28.867Z,7.00
2019-03-02T04:13:29.557Z,7.00
2019-03-02T04:18:55.306Z,7.00
2019-03-02T04:24:01.540Z,7.00
2019-03-02T04:29:09.118Z,7.00
2019-03-02T04:34:08.320Z,7.00
2019-03-02T04:39:13.752Z,7.00
2019-03-02T04:44:16.809Z,6.90
2019-03-02T04:49:20.190Z,6.90
2019-03-02T04:54:23.591Z,6.90
2019-03-02T04:59:26.974Z,6.90
2019-03-02T05:04:32.262Z,6.90
2019-03-02T05:09:35.448Z,6.90
2019-03-02T05:14:40.208Z,6.80
2019-03-02T05:19:43.933Z,6.80
2019-03-02T05:24:47.307Z,6.80
2019-03-02T05:29:54.136Z,6.80
2019-03-02T05:34:55.792Z,6.80
2019-03-02T05:39:59.172Z,6.80
2019-03-02T05:45:02.555Z,6.70
2019-03-02T05:50:08.478Z,6.70
2019-03-02T05:55:14.418Z,6.70
2019-03-02T06:00:19.528Z,6.70
2019-03-02T06:05:22.963Z,6.70
2019-03-02T06:10:26.440Z,6.60
2019-03-02T06:15:29.803Z,6.60
2019-03-02T06:20:35.650Z,6.60
2019-03-02T06:25:38.279Z,6.60
2019-03-02T06:30:44.118Z,6.50
2019-03-02T06:35:46.755Z,6.50
2019-03-02T06:40:50.137Z,6.50
2019-03-02T06:45:53.603Z,6.50
2019-03-02T06:50:56.988Z,6.50
2019-03-02T06:56:00.829Z,6.50
2019-03-02T07:01:04.278Z,6.40
2019-03-02T07:06:08.531Z,6.40
2019-03-02T07:11:12.772Z,6.40
2019-03-02T07:16:16.574Z,6.40
2019-03-02T07:21:21.248Z,6.40
2019-03-02T07:26:24.708Z,6.40
2019-03-02T07:31:28.109Z,6.40
2019-03-02T07:36:34.002Z,6.40
2019-03-02T07:41:36.605Z,6.40
2019-03-02T07:46:39.982Z,6.40
2019-03-02T07:51:43.372Z,6.40
2019-03-02T07:56:46.799Z,6.50
2019-03-02T08:01:52.780Z,6.50
2019-03-02T08:06:58.022Z,6.50
2019-03-02T08:12:00.469Z,6.50
2019-03-02T08:17:03.839Z,6.50
2019-03-02T08:22:07.860Z,6.50
2019-03-02T08:27:11.300Z,6.50
2019-03-02T08:32:17.698Z,6.50
2019-03-02T08:37:19.795Z,6.50
2019-03-02T08:42:23.171Z,6.50
2019-03-02T08:47:26.566Z,6.50
2019-03-02T08:52:29.952Z,6.50
2019-03-02T08:57:33.340Z,6.60
2019-03-02T09:02:36.732Z,6.60
2019-03-02T09:07:40.134Z,6.60
2019-03-02T09:12:43.512Z,6.70
2019-03-02T09:17:50.141Z,6.70
2019-03-02T09:22:51.986Z,6.80
2019-03-02T09:27:55.364Z,6.90
2019-03-02T09:32:58.777Z,7.00
2019-03-02T09:38:02.160Z,7.10
2019-03-02T09:43:05.532Z,7.10
2019-03-02T09:48:08.943Z,7.20
2019-03-02T09:53:12.639Z,7.20
2019-03-02T09:58:16.100Z,7.30
2019-03-02T10:03:19.501Z,7.30
2019-03-02T10:08:22.892Z,7.30
2019-03-02T10:13:26.288Z,7.40
2019-03-02T10:18:29.679Z,7.30
2019-03-02T10:23:33.084Z,7.40
2019-03-02T10:28:36.473Z,7.40
2019-03-02T10:33:39.887Z,7.30
2019-03-02T10:38:43.268Z,7.30
2019-03-02T10:43:46.664Z,7.30
2019-03-02T10:48:50.038Z,7.40
2019-03-02T10:53:55.811Z,7.40
2019-03-02T10:58:59.251Z,7.50
2019-03-02T11:04:04.936Z,7.60
2019-03-02T11:09:22.357Z,7.60
2019-03-02T11:14:22.681Z,7.70
2019-03-02T11:19:39.559Z,7.70
2019-03-02T11:24:50.347Z,7.80
2019-03-02T11:30:11.257Z,7.80
2019-03-02T11:35:22.202Z,7.80
2019-03-02T11:40:29.566Z,7.80
2019-03-02T11:45:33.988Z,7.90
2019-03-02T11:50:55.267Z,7.90
2019-03-02T11:56:02.973Z,7.90
2019-03-02T12:01:12.962Z,7.90
2019-03-02T12:06:26.868Z,7.90
2019-03-02T12:11:34.939Z,7.90
2019-03-02T12:16:56.033Z,7.90
2019-03-02T12:22:03.982Z,8.00
2019-03-02T12:27:11.747Z,8.00
2019-03-02T12:32:19.699Z,8.00
2019-03-02T12:37:28.476Z,8.00
2019-03-02T12:42:43.699Z,8.00
2019-03-02T12:47:48.729Z,8.10
2019-03-02T12:53:09.559Z,8.10
2019-03-02T12:58:24.151Z,8.10
2019-03-02T13:03:45.200Z,8.20
2019-03-02T13:08:59.218Z,8.30
2019-03-02T13:14:21.036Z,8.30
2019-03-02T13:19:31.737Z,8.30
2019-03-02T13:24:42.449Z,8.40
2019-03-02T13:29:53.279Z,8.40
2019-03-02T13:34:59.900Z,8.40
2019-03-02T13:40:05.087Z,8.50
2019-03-02T13:45:15.090Z,8.50
2019-03-02T13:50:20.896Z,8.50
2019-03-02T13:55:28.654Z,8.50
2019-03-02T14:00:33.671Z,8.50
2019-03-02T14:05:44.215Z,8.50
2019-03-02T14:11:01.364Z,8.50
2019-03-02T14:16:04.623Z,8.50
2019-03-02T14:21:09.659Z,8.60
2019-03-02T14:26:23.155Z,8.50
2019-03-02T14:31:28.183Z,8.60
2019-03-02T14:36:39.263Z,8.60
2019-03-02T14:41:46.947Z,8.60
2019-03-02T14:46:59.986Z,8.70
2019-03-02T14:52:07.387Z,8.70
2019-03-02T14:57:27.238Z,8.70
2019-03-02T15:02:32.267Z,8.70
2019-03-02T15:07:42.748Z,8.70
2019-03-02T15:13:03.949Z,8.80
2019-03-02T15:18:29.226Z,8.70
2019-03-02T15:23:40.759Z,8.80
2019-03-02T15:29:00.635Z,8.80
2019-03-02T15:34:23.719Z,8.80
2019-03-02T15:39:31.235Z,8.80
2019-03-02T15:44:42.973Z,8.70
2019-03-02T15:49:48.772Z,8.70
2019-03-02T15:54:53.788Z,8.70
2019-03-02T16:00:17.105Z,8.70
2019-03-02T16:05:37.060Z,8.60
2019-03-02T16:10:58.143Z,8.60
2019-03-02T16:16:06.332Z,8.60
2019-03-02T16:21:19.627Z,8.50
2019-03-02T16:26:29.869Z,8.50
2019-03-02T16:31:34.929Z,8.50
2019-03-02T16:36:41.330Z,8.50
2019-03-02T16:41:55.414Z,8.40
2019-03-02T16:47:15.018Z,8.40
2019-03-02T16:52:25.895Z,8.40
2019-03-02T16:57:34.608Z,8.30
2019-03-02T17:02:56.579Z,8.20
2019-03-02T17:08:07.056Z,8.20
2019-03-02T17:13:27.753Z,8.20
2019-03-02T17:18:50.255Z,8.10
2019-03-02T17:24:11.326Z,8.10
2019-03-02T17:29:16.351Z,8.10
2019-03-02T17:34:21.373Z,8.00
2019-03-02T17:39:44.517Z,8.00
2019-03-02T17:44:58.991Z,8.00
2019-03-02T17:50:10.259Z,7.90
2019-03-02T17:55:18.382Z,7.90
2019-03-02T18:00:26.088Z,7.80
2019-03-02T18:05:33.767Z,7.80
2019-03-02T18:10:38.835Z,7.80
2019-03-02T18:15:43.895Z,7.70
2019-03-02T18:20:47.351Z,7.70
2019-03-02T18:25:50.726Z,7.60
2019-03-02T18:30:54.125Z,7.60
2019-03-02T18:35:57.587Z,7.50
2019-03-02T18:41:02.721Z,7.50
2019-03-02T18:46:06.444Z,7.50
2019-03-02T18:51:17.159Z,7.40
2019-03-02T18:56:20.543Z,7.40
2019-03-02T19:01:23.935Z,7.30
2019-03-02T19:06:27.783Z,7.30
2019-03-02T19:11:31.172Z,7.30
2019-03-02T19:16:34.623Z,7.20
2019-03-02T19:21:37.998Z,7.20
2019-03-02T19:26:41.383Z,7.20
2019-03-02T19:31:44.792Z,7.20
2019-03-02T19:36:48.241Z,7.10
2019-03-02T19:41:51.750Z,7.10
2019-03-02T19:46:55.157Z,7.10
2019-03-02T19:51:58.623Z,7.00
2019-03-02T19:57:02.019Z,7.00
2019-03-02T20:02:05.485Z,7.00
2019-03-02T20:07:08.895Z,7.00
2019-03-02T20:12:12.403Z,7.00
2019-03-02T20:17:15.830Z,6.90
2019-03-02T20:22:19.225Z,6.90
2019-03-02T20:27:22.658Z,6.90
2019-03-02T20:32:26.091Z,6.90
2019-03-02T20:37:30.408Z,6.80
2019-03-02T20:42:33.841Z,6.80
2019-03-02T20:47:37.334Z,6.80
2019-03-02T20:52:40.776Z,6.70
2019-03-02T20:57:44.851Z,6.70
2019-03-02T21:02:48.422Z,6.70
2019-03-02T21:07:51.879Z,6.60
2019-03-02T21:12:55.393Z,6.60
2019-03-02T21:17:58.967Z,6.50
2019-03-02T21:23:02.401Z,6.50
2019-03-02T21:28:05.887Z,6.40
2019-03-02T21:33:09.318Z,6.40
2019-03-02T21:38:12.726Z,6.40
2019-03-02T21:43:16.147Z,6.30
2019-03-02T21:48:19.578Z,6.30
2019-03-02T21:53:23.010Z,6.30
2019-03-02T21:58:26.423Z,6.30
2019-03-02T22:03:29.829Z,6.30
2019-03-02T22:08:33.199Z,6.30
2019-03-02T22:13:36.570Z,6.30
2019-03-02T22:18:39.948Z,6.30
2019-03-02T22:23:43.342Z,6.30
2019-03-02T22:28:46.732Z,6.30
2019-03-02T22:33:50.126Z,6.40
2019-03-02T22:38:53.507Z,6.40
2019-03-02T22:43:56.891Z,6.40
2019-03-02T22:49:00.293Z,6.40
2019-03-02T22:54:03.743Z,6.40
2019-03-02T22:59:06.444Z,6.40
2019-03-02T23:04:09.820Z,6.40
2019-03-02T23:09:13.372Z,6.40
2019-03-02T23:14:16.772Z,6.40
2019-03-02T23:19:20.175Z,6.40
2019-03-02T23:24:23.556Z,6.40
2019-03-02T23:29:26.942Z,6.40
2019-03-02T23:34:36.965Z,6.40
2019-03-02T23:39:35.430Z,6.50
2019-03-02T23:44:38.813Z,6.50
2019-03-02T23:49:42.185Z,6.50
2019-03-02T23:54:45.558Z,6.50
2019-03-02T23:59:48.937Z,6.50
